Ellisville, Illinois
Current Conditions -  °F | °C
As of 8:15 AM on Monday 20 Oct 2014 (Local Time) from KMQB Reporting Station
Clear Clear  
Wind Chill: 46°   Ceiling: Unl
Heat Index: 49°   Visibility: 10mi
Dew Point: 47°   Wind: 8mph
Humidity: 92%   Direction: 290°WNW
Pressure: 29.96"   Gusts: NA
Location:  40.63°N, 90.31°W
Report Text: KMQB 201315Z AUTO 29007KT 10SM CLR 10/08 A2996 RMK AO2 T00950082
Loading
Personal Weather Stations






























Interactive Weather Map
Tropical Storm Tracking
New forecast layout! Learn more

10-Day Weather Forecast

Advertisements
Track Severe Weather on mobile